sensor_id;sensor_type;location;lat;lon;timestamp;P1;durP1;ratioP1;P2;durP2;ratioP2
5762;SDS011;2906;53.282;9.508;2023-02-01T00:00:11;27.00;;;5.18;;
5762;SDS011;2906;53.282;9.508;2023-02-01T00:01:13;34.60;;;4.88;;
5762;SDS011;2906;53.282;9.508;2023-02-01T00:02:15;41.15;;;4.68;;
5762;SDS011;2906;53.282;9.508;2023-02-01T00:03:16;31.38;;;5.00;;
5762;SDS011;2906;53.282;9.508;2023-02-01T00:04:19;35.88;;;5.18;;
5762;SDS011;2906;53.282;9.508;2023-02-01T00:05:22;36.50;;;5.40;;
5762;SDS011;2906;53.282;9.508;2023-02-01T00:06:25;27.58;;;3.70;;
5762;SDS011;2906;53.282;9.508;2023-02-01T00:07:26;31.25;;;5.95;;
5762;SDS011;2906;53.282;9.508;2023-02-01T00:08:29;30.10;;;3.92;;
5762;SDS011;2906;53.282;9.508;2023-02-01T00:09:30;27.77;;;4.88;;
5762;SDS011;2906;53.282;9.508;2023-02-01T00:10:33;40.65;;;8.38;;
5762;SDS011;2906;53.282;9.508;2023-02-01T00:11:34;24.38;;;4.55;;
5762;SDS011;2906;53.282;9.508;2023-02-01T00:12:36;28.42;;;5.35;;
5762;SDS011;2906;53.282;9.508;2023-02-01T00:13:38;34.53;;;4.32;;
5762;SDS011;2906;53.282;9.508;2023-02-01T00:14:41;30.27;;;4.13;;
5762;SDS011;2906;53.282;9.508;2023-02-01T00:15:44;39.75;;;6.43;;
5762;SDS011;2906;53.282;9.508;2023-02-01T00:16:45;34.50;;;5.00;;
5762;SDS011;2906;53.282;9.508;2023-02-01T00:17:49;31.65;;;4.43;;
5762;SDS011;2906;53.282;9.508;2023-02-01T00:18:56;33.05;;;5.47;;
5762;SDS011;2906;53.282;9.508;2023-02-01T00:19:59;32.33;;;4.68;;
5762;SDS011;2906;53.282;9.508;2023-02-01T00:54:11;31.40;;;4.80;;
5762;SDS011;2906;53.282;9.508;2023-02-01T00:55:14;39.30;;;4.90;;
5762;SDS011;2906;53.282;9.508;2023-02-01T00:56:15;32.95;;;5.35;;
5762;SDS011;2906;53.282;9.508;2023-02-01T00:57:18;35.88;;;6.53;;
5762;SDS011;2906;53.282;9.508;2023-02-01T00:58:20;35.35;;;4.80;;
5762;SDS011;2906;53.282;9.508;2023-02-01T01:12:22;45.30;;;7.13;;
5762;SDS011;2906;53.282;9.508;2023-02-01T01:13:25;34.92;;;6.00;;
5762;SDS011;2906;53.282;9.508;2023-02-01T01:33:01;43.17;;;4.70;;
5762;SDS011;2906;53.282;9.508;2023-02-01T01:34:04;33.00;;;4.88;;
5762;SDS011;2906;53.282;9.508;2023-02-01T01:35:05;39.03;;;6.63;;
5762;SDS011;2906;53.282;9.508;2023-02-01T01:36:08;54.22;;;5.35;;
5762;SDS011;2906;53.282;9.508;2023-02-01T01:37:11;36.53;;;4.95;;
5762;SDS011;2906;53.282;9.508;2023-02-01T01:38:13;36.13;;;4.95;;
5762;SDS011;2906;53.282;9.508;2023-02-01T01:39:15;38.65;;;5.50;;
5762;SDS011;2906;53.282;9.508;2023-02-01T01:40:17;36.17;;;5.80;;
5762;SDS011;2906;53.282;9.508;2023-02-01T01:41:19;35.63;;;5.30;;
5762;SDS011;2906;53.282;9.508;2023-02-01T01:42:22;37.72;;;6.10;;
5762;SDS011;2906;53.282;9.508;2023-02-01T01:43:24;41.75;;;6.00;;
5762;SDS011;2906;53.282;9.508;2023-02-01T01:45:42;43.72;;;5.15;;
5762;SDS011;2906;53.282;9.508;2023-02-01T01:46:44;39.20;;;5.15;;
5762;SDS011;2906;53.282;9.508;2023-02-01T01:47:47;38.63;;;5.80;;
5762;SDS011;2906;53.282;9.508;2023-02-01T01:48:53;30.08;;;4.32;;
5762;SDS011;2906;53.282;9.508;2023-02-01T01:49:56;31.52;;;5.78;;
5762;SDS011;2906;53.282;9.508;2023-02-01T01:51:00;32.08;;;4.60;;
5762;SDS011;2906;53.282;9.508;2023-02-01T01:52:04;37.90;;;5.53;;
5762;SDS011;2906;53.282;9.508;2023-02-01T01:53:08;33.10;;;6.47;;
5762;SDS011;2906;53.282;9.508;2023-02-01T01:54:14;34.50;;;5.28;;
5762;SDS011;2906;53.282;9.508;2023-02-01T01:55:18;30.55;;;5.07;;
5762;SDS011;2906;53.282;9.508;2023-02-01T01:56:21;47.13;;;6.20;;
5762;SDS011;2906;53.282;9.508;2023-02-01T01:57:25;36.28;;;5.03;;
5762;SDS011;2906;53.282;9.508;2023-02-01T01:58:28;35.28;;;4.95;;
5762;SDS011;2906;53.282;9.508;2023-02-01T02:24:00;31.83;;;5.13;;
5762;SDS011;2906;53.282;9.508;2023-02-01T02:25:20;31.55;;;4.53;;
5762;SDS011;2906;53.282;9.508;2023-02-01T02:26:31;35.72;;;5.30;;
5762;SDS011;2906;53.282;9.508;2023-02-01T02:30:54;32.88;;;5.10;;
5762;SDS011;2906;53.282;9.508;2023-02-01T02:32:07;39.22;;;6.15;;
5762;SDS011;2906;53.282;9.508;2023-02-01T02:33:23;42.88;;;6.93;;
5762;SDS011;2906;53.282;9.508;2023-02-01T02:34:31;41.85;;;5.30;;
5762;SDS011;2906;53.282;9.508;2023-02-01T02:35:40;30.60;;;4.78;;
5762;SDS011;2906;53.282;9.508;2023-02-01T02:36:46;43.42;;;5.57;;
5762;SDS011;2906;53.282;9.508;2023-02-01T02:37:54;45.45;;;5.70;;
5762;SDS011;2906;53.282;9.508;2023-02-01T02:39:03;41.90;;;5.53;;
5762;SDS011;2906;53.282;9.508;2023-02-01T02:40:11;40.47;;;4.18;;
5762;SDS011;2906;53.282;9.508;2023-02-01T02:41:15;41.25;;;5.00;;
5762;SDS011;2906;53.282;9.508;2023-02-01T02:42:39;36.20;;;5.13;;
5762;SDS011;2906;53.282;9.508;2023-02-01T02:45:37;39.35;;;6.00;;
5762;SDS011;2906;53.282;9.508;2023-02-01T02:46:57;36.78;;;4.10;;
5762;SDS011;2906;53.282;9.508;2023-02-01T02:48:17;31.30;;;5.05;;
5762;SDS011;2906;53.282;9.508;2023-02-01T02:49:22;42.00;;;6.38;;
5762;SDS011;2906;53.282;9.508;2023-02-01T02:50:26;34.92;;;5.72;;
5762;SDS011;2906;53.282;9.508;2023-02-01T02:51:45;41.70;;;6.22;;
5762;SDS011;2906;53.282;9.508;2023-02-01T02:53:02;42.38;;;6.70;;
5762;SDS011;2906;53.282;9.508;2023-02-01T02:54:20;37.08;;;10.02;;
5762;SDS011;2906;53.282;9.508;2023-02-01T02:55:37;32.15;;;5.72;;
5762;SDS011;2906;53.282;9.508;2023-02-01T02:56:41;26.05;;;4.22;;
5762;SDS011;2906;53.282;9.508;2023-02-01T02:57:57;33.00;;;4.68;;
5762;SDS011;2906;53.282;9.508;2023-02-01T02:59:16;31.13;;;4.57;;
5762;SDS011;2906;53.282;9.508;2023-02-01T03:00:33;31.17;;;7.85;;
5762;SDS011;2906;53.282;9.508;2023-02-01T03:01:49;65.43;;;5.40;;
5762;SDS011;2906;53.282;9.508;2023-02-01T03:03:05;27.92;;;5.80;;
5762;SDS011;2906;53.282;9.508;2023-02-01T03:07:49;39.35;;;7.35;;
5762;SDS011;2906;53.282;9.508;2023-02-01T03:08:54;48.65;;;5.97;;
5762;SDS011;2906;53.282;9.508;2023-02-01T03:09:57;29.38;;;6.05;;
5762;SDS011;2906;53.282;9.508;2023-02-01T03:11:04;30.50;;;4.05;;
5762;SDS011;2906;53.282;9.508;2023-02-01T03:12:07;24.80;;;4.43;;
5762;SDS011;2906;53.282;9.508;2023-02-01T03:13:27;15.57;;;3.15;;
5762;SDS011;2906;53.282;9.508;2023-02-01T03:14:30;26.38;;;3.42;;
5762;SDS011;2906;53.282;9.508;2023-02-01T03:15:36;27.85;;;4.25;;
5762;SDS011;2906;53.282;9.508;2023-02-01T03:16:40;15.98;;;2.60;;
5762;SDS011;2906;53.282;9.508;2023-02-01T03:17:42;16.60;;;2.70;;
5762;SDS011;2906;53.282;9.508;2023-02-01T03:48:42;25.05;;;3.47;;
5762;SDS011;2906;53.282;9.508;2023-02-01T03:49:47;20.90;;;2.80;;
5762;SDS011;2906;53.282;9.508;2023-02-01T03:50:51;21.83;;;2.35;;
5762;SDS011;2906;53.282;9.508;2023-02-01T03:51:54;26.58;;;4.10;;
5762;SDS011;2906;53.282;9.508;2023-02-01T03:52:58;31.65;;;2.40;;
5762;SDS011;2906;53.282;9.508;2023-02-01T03:54:01;27.08;;;5.65;;
5762;SDS011;2906;53.282;9.508;2023-02-01T03:55:03;18.42;;;3.30;;
5762;SDS011;2906;53.282;9.508;2023-02-01T03:56:07;15.80;;;3.85;;
5762;SDS011;2906;53.282;9.508;2023-02-01T03:57:09;27.98;;;4.13;;
5762;SDS011;2906;53.282;9.508;2023-02-01T03:58:14;18.70;;;4.50;;
5762;SDS011;2906;53.282;9.508;2023-02-01T03:59:16;20.17;;;4.00;;
5762;SDS011;2906;53.282;9.508;2023-02-01T04:00:19;18.85;;;3.55;;
5762;SDS011;2906;53.282;9.508;2023-02-01T04:01:22;18.38;;;2.60;;
5762;SDS011;2906;53.282;9.508;2023-02-01T04:02:24;17.17;;;6.32;;
5762;SDS011;2906;53.282;9.508;2023-02-01T04:03:26;12.70;;;2.03;;
5762;SDS011;2906;53.282;9.508;2023-02-01T04:04:30;13.68;;;2.97;;
5762;SDS011;2906;53.282;9.508;2023-02-01T04:05:32;15.40;;;3.80;;
5762;SDS011;2906;53.282;9.508;2023-02-01T04:06:35;11.98;;;1.63;;
5762;SDS011;2906;53.282;9.508;2023-02-01T04:07:36;17.50;;;1.92;;
5762;SDS011;2906;53.282;9.508;2023-02-01T04:08:38;21.92;;;1.75;;
5762;SDS011;2906;53.282;9.508;2023-02-01T04:09:40;9.93;;;1.95;;
5762;SDS011;2906;53.282;9.508;2023-02-01T04:10:42;10.20;;;1.75;;
5762;SDS011;2906;53.282;9.508;2023-02-01T04:11:44;13.73;;;1.30;;
5762;SDS011;2906;53.282;9.508;2023-02-01T04:12:46;13.10;;;3.10;;
5762;SDS011;2906;53.282;9.508;2023-02-01T04:13:48;11.95;;;1.73;;
5762;SDS011;2906;53.282;9.508;2023-02-01T04:14:50;11.82;;;1.42;;
5762;SDS011;2906;53.282;9.508;2023-02-01T04:15:51;9.90;;;1.33;;
5762;SDS011;2906;53.282;9.508;2023-02-01T04:16:54;14.50;;;1.77;;
5762;SDS011;2906;53.282;9.508;2023-02-01T04:17:55;7.90;;;1.10;;
5762;SDS011;2906;53.282;9.508;2023-02-01T04:18:57;9.82;;;1.75;;
5762;SDS011;2906;53.282;9.508;2023-02-01T04:20:00;10.70;;;1.40;;
5762;SDS011;2906;53.282;9.508;2023-02-01T04:21:04;10.50;;;2.08;;
5762;SDS011;2906;53.282;9.508;2023-02-01T04:22:06;9.10;;;1.10;;
5762;SDS011;2906;53.282;9.508;2023-02-01T04:23:09;10.07;;;2.58;;
5762;SDS011;2906;53.282;9.508;2023-02-01T04:24:10;10.25;;;2.15;;
5762;SDS011;2906;53.282;9.508;2023-02-01T04:25:12;11.70;;;1.00;;
5762;SDS011;2906;53.282;9.508;2023-02-01T04:26:14;13.02;;;1.20;;
5762;SDS011;2906;53.282;9.508;2023-02-01T04:27:17;12.10;;;1.83;;
5762;SDS011;2906;53.282;9.508;2023-02-01T04:28:18;12.23;;;1.90;;
5762;SDS011;2906;53.282;9.508;2023-02-01T04:29:20;9.77;;;1.95;;
5762;SDS011;2906;53.282;9.508;2023-02-01T04:30:22;11.30;;;1.85;;
5762;SDS011;2906;53.282;9.508;2023-02-01T04:31:25;10.55;;;1.13;;
5762;SDS011;2906;53.282;9.508;2023-02-01T04:32:27;11.93;;;1.17;;
5762;SDS011;2906;53.282;9.508;2023-02-01T04:33:29;12.25;;;2.25;;
5762;SDS011;2906;53.282;9.508;2023-02-01T04:34:31;17.70;;;1.73;;
5762;SDS011;2906;53.282;9.508;2023-02-01T04:35:35;12.05;;;1.00;;
5762;SDS011;2906;53.282;9.508;2023-02-01T04:36:37;12.07;;;1.63;;
5762;SDS011;2906;53.282;9.508;2023-02-01T04:37:40;14.63;;;1.67;;
5762;SDS011;2906;53.282;9.508;2023-02-01T04:38:41;13.88;;;1.50;;
5762;SDS011;2906;53.282;9.508;2023-02-01T04:39:44;13.88;;;1.60;;
5762;SDS011;2906;53.282;9.508;2023-02-01T04:40:46;14.95;;;1.80;;
5762;SDS011;2906;53.282;9.508;2023-02-01T04:41:52;16.58;;;1.95;;
5762;SDS011;2906;53.282;9.508;2023-02-01T04:42:53;13.90;;;1.63;;
5762;SDS011;2906;53.282;9.508;2023-02-01T04:43:55;18.63;;;1.50;;
5762;SDS011;2906;53.282;9.508;2023-02-01T04:44:56;14.32;;;1.73;;
5762;SDS011;2906;53.282;9.508;2023-02-01T04:45:59;14.55;;;2.20;;
5762;SDS011;2906;53.282;9.508;2023-02-01T04:47:00;17.50;;;1.88;;
5762;SDS011;2906;53.282;9.508;2023-02-01T04:48:02;22.15;;;2.20;;
5762;SDS011;2906;53.282;9.508;2023-02-01T04:49:04;18.83;;;2.00;;
5762;SDS011;2906;53.282;9.508;2023-02-01T04:50:06;19.48;;;2.58;;
5762;SDS011;2906;53.282;9.508;2023-02-01T04:51:11;17.52;;;1.63;;
5762;SDS011;2906;53.282;9.508;2023-02-01T04:52:15;19.15;;;2.45;;
5762;SDS011;2906;53.282;9.508;2023-02-01T04:53:16;16.92;;;1.85;;
5762;SDS011;2906;53.282;9.508;2023-02-01T04:54:19;16.38;;;1.75;;
5762;SDS011;2906;53.282;9.508;2023-02-01T04:55:20;18.73;;;2.45;;
5762;SDS011;2906;53.282;9.508;2023-02-01T04:56:22;19.27;;;2.55;;
5762;SDS011;2906;53.282;9.508;2023-02-01T04:57:24;21.35;;;2.50;;
5762;SDS011;2906;53.282;9.508;2023-02-01T04:58:26;22.17;;;3.35;;
5762;SDS011;2906;53.282;9.508;2023-02-01T04:59:27;22.42;;;3.97;;
5762;SDS011;2906;53.282;9.508;2023-02-01T05:00:29;23.08;;;3.38;;
5762;SDS011;2906;53.282;9.508;2023-02-01T05:01:31;23.13;;;3.05;;
5762;SDS011;2906;53.282;9.508;2023-02-01T05:02:33;23.30;;;3.30;;
5762;SDS011;2906;53.282;9.508;2023-02-01T05:03:35;18.25;;;3.28;;
5762;SDS011;2906;53.282;9.508;2023-02-01T05:04:37;15.43;;;2.22;;
5762;SDS011;2906;53.282;9.508;2023-02-01T05:05:38;13.27;;;2.05;;
5762;SDS011;2906;53.282;9.508;2023-02-01T05:06:42;14.15;;;4.20;;
5762;SDS011;2906;53.282;9.508;2023-02-01T05:07:45;15.02;;;2.72;;
5762;SDS011;2906;53.282;9.508;2023-02-01T05:08:48;17.52;;;2.80;;
5762;SDS011;2906;53.282;9.508;2023-02-01T05:09:49;17.65;;;2.58;;
5762;SDS011;2906;53.282;9.508;2023-02-01T05:10:51;18.67;;;6.07;;
5762;SDS011;2906;53.282;9.508;2023-02-01T05:11:53;16.48;;;2.70;;
5762;SDS011;2906;53.282;9.508;2023-02-01T05:13:09;15.90;;;2.92;;
5762;SDS011;2906;53.282;9.508;2023-02-01T05:14:26;24.10;;;3.28;;
5762;SDS011;2906;53.282;9.508;2023-02-01T05:15:28;17.60;;;2.35;;
5762;SDS011;2906;53.282;9.508;2023-02-01T05:16:29;23.70;;;2.42;;
5762;SDS011;2906;53.282;9.508;2023-02-01T05:17:32;14.98;;;2.95;;
5762;SDS011;2906;53.282;9.508;2023-02-01T05:18:33;16.90;;;3.05;;
5762;SDS011;2906;53.282;9.508;2023-02-01T05:19:36;14.05;;;2.55;;
5762;SDS011;2906;53.282;9.508;2023-02-01T05:20:37;14.55;;;2.30;;
5762;SDS011;2906;53.282;9.508;2023-02-01T05:21:39;12.63;;;1.55;;
5762;SDS011;2906;53.282;9.508;2023-02-01T05:22:42;16.15;;;2.45;;
5762;SDS011;2906;53.282;9.508;2023-02-01T05:23:44;14.35;;;2.05;;
5762;SDS011;2906;53.282;9.508;2023-02-01T05:25:00;17.45;;;2.35;;
5762;SDS011;2906;53.282;9.508;2023-02-01T05:26:03;17.13;;;2.67;;
5762;SDS011;2906;53.282;9.508;2023-02-01T05:27:04;21.90;;;3.80;;
5762;SDS011;2906;53.282;9.508;2023-02-01T05:28:06;16.58;;;2.65;;
5762;SDS011;2906;53.282;9.508;2023-02-01T05:29:08;21.42;;;2.80;;
5762;SDS011;2906;53.282;9.508;2023-02-01T05:30:11;22.48;;;3.50;;
5762;SDS011;2906;53.282;9.508;2023-02-01T05:31:13;20.77;;;2.38;;
5762;SDS011;2906;53.282;9.508;2023-02-01T05:32:15;16.13;;;1.92;;
5762;SDS011;2906;53.282;9.508;2023-02-01T05:33:16;24.33;;;2.40;;
5762;SDS011;2906;53.282;9.508;2023-02-01T05:34:19;15.18;;;3.35;;
5762;SDS011;2906;53.282;9.508;2023-02-01T05:35:20;13.35;;;2.28;;
5762;SDS011;2906;53.282;9.508;2023-02-01T05:36:23;15.85;;;2.83;;
5762;SDS011;2906;53.282;9.508;2023-02-01T05:37:25;13.90;;;1.63;;
5762;SDS011;2906;53.282;9.508;2023-02-01T05:38:29;24.88;;;3.67;;
5762;SDS011;2906;53.282;9.508;2023-02-01T05:39:30;16.02;;;1.77;;
5762;SDS011;2906;53.282;9.508;2023-02-01T05:40:35;16.10;;;2.33;;
5762;SDS011;2906;53.282;9.508;2023-02-01T05:41:36;14.75;;;2.00;;
5762;SDS011;2906;53.282;9.508;2023-02-01T05:42:39;12.38;;;1.55;;
5762;SDS011;2906;53.282;9.508;2023-02-01T05:43:40;12.82;;;1.33;;
5762;SDS011;2906;53.282;9.508;2023-02-01T05:44:42;12.00;;;1.30;;
5762;SDS011;2906;53.282;9.508;2023-02-01T05:45:44;12.85;;;1.98;;
5762;SDS011;2906;53.282;9.508;2023-02-01T05:46:46;18.45;;;1.92;;
5762;SDS011;2906;53.282;9.508;2023-02-01T05:47:47;13.27;;;1.52;;
5762;SDS011;2906;53.282;9.508;2023-02-01T05:48:50;15.27;;;3.22;;
5762;SDS011;2906;53.282;9.508;2023-02-01T05:49:51;16.52;;;2.03;;
5762;SDS011;2906;53.282;9.508;2023-02-01T05:50:53;17.48;;;1.80;;
5762;SDS011;2906;53.282;9.508;2023-02-01T05:51:55;11.95;;;2.33;;
5762;SDS011;2906;53.282;9.508;2023-02-01T05:52:57;19.52;;;2.30;;
5762;SDS011;2906;53.282;9.508;2023-02-01T05:54:00;15.23;;;2.72;;
5762;SDS011;2906;53.282;9.508;2023-02-01T05:55:03;21.15;;;2.67;;
5762;SDS011;2906;53.282;9.508;2023-02-01T05:56:04;22.77;;;2.95;;
5762;SDS011;2906;53.282;9.508;2023-02-01T05:57:07;23.67;;;2.95;;
5762;SDS011;2906;53.282;9.508;2023-02-01T05:58:08;21.48;;;2.72;;
5762;SDS011;2906;53.282;9.508;2023-02-01T05:59:12;19.08;;;2.13;;
5762;SDS011;2906;53.282;9.508;2023-02-01T06:00:13;14.80;;;2.03;;
5762;SDS011;2906;53.282;9.508;2023-02-01T06:01:16;13.95;;;2.13;;
5762;SDS011;2906;53.282;9.508;2023-02-01T06:02:17;30.38;;;3.42;;
5762;SDS011;2906;53.282;9.508;2023-02-01T06:03:20;15.85;;;2.13;;
5762;SDS011;2906;53.282;9.508;2023-02-01T06:04:21;16.63;;;3.65;;
5762;SDS011;2906;53.282;9.508;2023-02-01T06:05:24;15.27;;;3.75;;
5762;SDS011;2906;53.282;9.508;2023-02-01T06:06:25;12.05;;;1.80;;
5762;SDS011;2906;53.282;9.508;2023-02-01T06:07:27;11.45;;;1.83;;
5762;SDS011;2906;53.282;9.508;2023-02-01T06:08:29;14.13;;;2.25;;
5762;SDS011;2906;53.282;9.508;2023-02-01T06:09:33;9.40;;;1.70;;
5762;SDS011;2906;53.282;9.508;2023-02-01T06:10:34;12.38;;;1.33;;
5762;SDS011;2906;53.282;9.508;2023-02-01T06:11:37;12.70;;;2.03;;
5762;SDS011;2906;53.282;9.508;2023-02-01T06:12:38;15.52;;;2.88;;
5762;SDS011;2906;53.282;9.508;2023-02-01T06:13:41;13.30;;;1.45;;
5762;SDS011;2906;53.282;9.508;2023-02-01T06:14:42;15.50;;;1.63;;
5762;SDS011;2906;53.282;9.508;2023-02-01T06:15:45;8.70;;;2.55;;
5762;SDS011;2906;53.282;9.508;2023-02-01T06:16:46;14.00;;;3.50;;
5762;SDS011;2906;53.282;9.508;2023-02-01T06:17:49;11.65;;;1.65;;
5762;SDS011;2906;53.282;9.508;2023-02-01T06:18:50;11.40;;;1.80;;
5762;SDS011;2906;53.282;9.508;2023-02-01T06:19:54;9.63;;;1.98;;
5762;SDS011;2906;53.282;9.508;2023-02-01T06:20:55;11.05;;;1.00;;
5762;SDS011;2906;53.282;9.508;2023-02-01T06:22:00;9.50;;;1.63;;
5762;SDS011;2906;53.282;9.508;2023-02-01T06:23:01;7.70;;;1.27;;
5762;SDS011;2906;53.282;9.508;2023-02-01T06:24:08;9.63;;;2.22;;
5762;SDS011;2906;53.282;9.508;2023-02-01T06:25:11;13.68;;;1.30;;
5762;SDS011;2906;53.282;9.508;2023-02-01T06:26:13;11.68;;;1.30;;
5762;SDS011;2906;53.282;9.508;2023-02-01T06:27:15;9.38;;;1.20;;
5762;SDS011;2906;53.282;9.508;2023-02-01T06:28:17;10.73;;;1.20;;
5762;SDS011;2906;53.282;9.508;2023-02-01T06:29:19;10.82;;;1.90;;
5762;SDS011;2906;53.282;9.508;2023-02-01T06:30:21;9.98;;;1.35;;
5762;SDS011;2906;53.282;9.508;2023-02-01T06:31:22;17.90;;;1.10;;
5762;SDS011;2906;53.282;9.508;2023-02-01T06:32:26;12.38;;;1.60;;
5762;SDS011;2906;53.282;9.508;2023-02-01T06:33:27;15.60;;;2.20;;
5762;SDS011;2906;53.282;9.508;2023-02-01T06:34:30;13.60;;;1.50;;
5762;SDS011;2906;53.282;9.508;2023-02-01T06:35:31;9.88;;;1.20;;
5762;SDS011;2906;53.282;9.508;2023-02-01T06:36:35;13.43;;;1.40;;
5762;SDS011;2906;53.282;9.508;2023-02-01T06:37:36;23.95;;;2.88;;
5762;SDS011;2906;53.282;9.508;2023-02-01T06:38:39;12.13;;;1.55;;
5762;SDS011;2906;53.282;9.508;2023-02-01T06:39:40;14.50;;;2.30;;
5762;SDS011;2906;53.282;9.508;2023-02-01T06:40:51;15.93;;;2.30;;
5762;SDS011;2906;53.282;9.508;2023-02-01T06:41:54;17.15;;;2.25;;
5762;SDS011;2906;53.282;9.508;2023-02-01T06:42:57;15.95;;;2.08;;
5762;SDS011;2906;53.282;9.508;2023-02-01T06:44:00;29.73;;;1.98;;
5762;SDS011;2906;53.282;9.508;2023-02-01T06:45:03;19.65;;;2.50;;
5762;SDS011;2906;53.282;9.508;2023-02-01T06:46:07;17.48;;;2.70;;
5762;SDS011;2906;53.282;9.508;2023-02-01T06:47:12;14.68;;;2.03;;
5762;SDS011;2906;53.282;9.508;2023-02-01T06:48:13;23.65;;;2.40;;
5762;SDS011;2906;53.282;9.508;2023-02-01T06:49:16;23.27;;;3.33;;
5762;SDS011;2906;53.282;9.508;2023-02-01T06:50:18;20.75;;;2.38;;
5762;SDS011;2906;53.282;9.508;2023-02-01T06:51:22;45.33;;;14.70;;
5762;SDS011;2906;53.282;9.508;2023-02-01T06:52:27;48.92;;;20.63;;
5762;SDS011;2906;53.282;9.508;2023-02-01T06:53:28;29.58;;;6.82;;
5762;SDS011;2906;53.282;9.508;2023-02-01T06:54:31;23.80;;;3.05;;
5762;SDS011;2906;53.282;9.508;2023-02-01T06:55:34;24.77;;;4.43;;
5762;SDS011;2906;53.282;9.508;2023-02-01T06:56:37;26.02;;;2.95;;
5762;SDS011;2906;53.282;9.508;2023-02-01T06:57:40;35.17;;;6.70;;
5762;SDS011;2906;53.282;9.508;2023-02-01T06:58:41;30.13;;;3.50;;
5762;SDS011;2906;53.282;9.508;2023-02-01T06:59:43;46.25;;;3.80;;
5762;SDS011;2906;53.282;9.508;2023-02-01T07:00:45;23.15;;;4.07;;
5762;SDS011;2906;53.282;9.508;2023-02-01T07:01:48;35.60;;;5.15;;
5762;SDS011;2906;53.282;9.508;2023-02-01T07:02:49;28.52;;;3.78;;
5762;SDS011;2906;53.282;9.508;2023-02-01T07:03:51;36.50;;;5.18;;
5762;SDS011;2906;53.282;9.508;2023-02-01T07:06:10;23.88;;;3.38;;
5762;SDS011;2906;53.282;9.508;2023-02-01T07:07:12;27.42;;;4.63;;
5762;SDS011;2906;53.282;9.508;2023-02-01T07:08:14;36.33;;;4.93;;
5762;SDS011;2906;53.282;9.508;2023-02-01T07:09:16;45.33;;;3.35;;
5762;SDS011;2906;53.282;9.508;2023-02-01T07:10:17;29.05;;;4.10;;
5762;SDS011;2906;53.282;9.508;2023-02-01T07:11:19;33.92;;;5.20;;
5762;SDS011;2906;53.282;9.508;2023-02-01T07:12:20;32.17;;;4.47;;
5762;SDS011;2906;53.282;9.508;2023-02-01T07:13:22;41.63;;;4.60;;
5762;SDS011;2906;53.282;9.508;2023-02-01T07:14:23;27.25;;;7.00;;
5762;SDS011;2906;53.282;9.508;2023-02-01T07:15:25;32.42;;;4.63;;
5762;SDS011;2906;53.282;9.508;2023-02-01T07:16:27;33.28;;;4.07;;
5762;SDS011;2906;53.282;9.508;2023-02-01T07:17:29;25.98;;;3.25;;
5762;SDS011;2906;53.282;9.508;2023-02-01T07:18:31;38.35;;;4.68;;
5762;SDS011;2906;53.282;9.508;2023-02-01T07:19:32;36.67;;;3.90;;
5762;SDS011;2906;53.282;9.508;2023-02-01T07:20:34;31.83;;;3.67;;
5762;SDS011;2906;53.282;9.508;2023-02-01T07:21:36;47.83;;;6.15;;
5762;SDS011;2906;53.282;9.508;2023-02-01T07:22:38;38.20;;;4.13;;
5762;SDS011;2906;53.282;9.508;2023-02-01T07:23:39;40.10;;;4.68;;
5762;SDS011;2906;53.282;9.508;2023-02-01T07:24:44;38.22;;;4.30;;
5762;SDS011;2906;53.282;9.508;2023-02-01T07:25:45;31.52;;;3.65;;
5762;SDS011;2906;53.282;9.508;2023-02-01T07:26:48;35.80;;;4.20;;
5762;SDS011;2906;53.282;9.508;2023-02-01T07:27:51;30.55;;;3.72;;
5762;SDS011;2906;53.282;9.508;2023-02-01T07:28:52;41.25;;;5.63;;
5762;SDS011;2906;53.282;9.508;2023-02-01T07:29:55;32.88;;;3.60;;
5762;SDS011;2906;53.282;9.508;2023-02-01T07:31:02;33.20;;;4.38;;
5762;SDS011;2906;53.282;9.508;2023-02-01T07:32:04;35.92;;;3.55;;
5762;SDS011;2906;53.282;9.508;2023-02-01T07:33:07;33.03;;;4.57;;
5762;SDS011;2906;53.282;9.508;2023-02-01T07:34:08;25.73;;;3.33;;
5762;SDS011;2906;53.282;9.508;2023-02-01T07:35:10;34.55;;;3.35;;
5762;SDS011;2906;53.282;9.508;2023-02-01T07:36:12;29.65;;;5.18;;
5762;SDS011;2906;53.282;9.508;2023-02-01T07:37:17;39.15;;;4.40;;
5762;SDS011;2906;53.282;9.508;2023-02-01T07:38:19;33.33;;;4.18;;
5762;SDS011;2906;53.282;9.508;2023-02-01T07:39:23;34.80;;;4.15;;
5762;SDS011;2906;53.282;9.508;2023-02-01T07:40:28;28.55;;;4.55;;
5762;SDS011;2906;53.282;9.508;2023-02-01T07:41:33;43.95;;;4.75;;
5762;SDS011;2906;53.282;9.508;2023-02-01T07:42:35;35.40;;;3.92;;
5762;SDS011;2906;53.282;9.508;2023-02-01T07:43:37;22.23;;;3.80;;
5762;SDS011;2906;53.282;9.508;2023-02-01T07:44:41;27.55;;;4.63;;
5762;SDS011;2906;53.282;9.508;2023-02-01T07:45:43;27.70;;;4.20;;
5762;SDS011;2906;53.282;9.508;2023-02-01T07:46:51;41.28;;;3.47;;
5762;SDS011;2906;53.282;9.508;2023-02-01T07:48:02;30.23;;;3.10;;
5762;SDS011;2906;53.282;9.508;2023-02-01T07:49:05;34.28;;;3.70;;
5762;SDS011;2906;53.282;9.508;2023-02-01T07:50:07;37.38;;;4.35;;
5762;SDS011;2906;53.282;9.508;2023-02-01T07:51:10;36.50;;;5.00;;
5762;SDS011;2906;53.282;9.508;2023-02-01T07:52:12;27.92;;;3.60;;
5762;SDS011;2906;53.282;9.508;2023-02-01T07:53:18;26.85;;;4.82;;
5762;SDS011;2906;53.282;9.508;2023-02-01T07:54:19;61.22;;;16.15;;
5762;SDS011;2906;53.282;9.508;2023-02-01T07:55:22;36.13;;;4.68;;
5762;SDS011;2906;53.282;9.508;2023-02-01T07:56:26;21.55;;;4.70;;
5762;SDS011;2906;53.282;9.508;2023-02-01T07:57:29;42.85;;;4.07;;
5762;SDS011;2906;53.282;9.508;2023-02-01T07:58:30;28.80;;;3.58;;
5762;SDS011;2906;53.282;9.508;2023-02-01T07:59:36;30.55;;;3.35;;
5762;SDS011;2906;53.282;9.508;2023-02-01T08:00:59;28.85;;;3.15;;
5762;SDS011;2906;53.282;9.508;2023-02-01T08:02:18;24.33;;;2.85;;
5762;SDS011;2906;53.282;9.508;2023-02-01T08:03:19;31.48;;;3.60;;
5762;SDS011;2906;53.282;9.508;2023-02-01T08:04:21;20.90;;;3.05;;
5762;SDS011;2906;53.282;9.508;2023-02-01T08:05:26;32.13;;;4.22;;
5762;SDS011;2906;53.282;9.508;2023-02-01T08:06:29;33.20;;;3.60;;
5762;SDS011;2906;53.282;9.508;2023-02-01T08:07:32;32.28;;;4.93;;
5762;SDS011;2906;53.282;9.508;2023-02-01T08:08:34;32.17;;;3.92;;
5762;SDS011;2906;53.282;9.508;2023-02-01T08:09:37;33.15;;;3.90;;
5762;SDS011;2906;53.282;9.508;2023-02-01T08:10:39;24.38;;;3.50;;
5762;SDS011;2906;53.282;9.508;2023-02-01T08:11:43;38.92;;;5.75;;
5762;SDS011;2906;53.282;9.508;2023-02-01T08:12:46;29.50;;;5.30;;
5762;SDS011;2906;53.282;9.508;2023-02-01T08:13:48;31.02;;;4.40;;
5762;SDS011;2906;53.282;9.508;2023-02-01T08:14:51;36.13;;;5.30;;
5762;SDS011;2906;53.282;9.508;2023-02-01T08:15:57;26.70;;;3.13;;
5762;SDS011;2906;53.282;9.508;2023-02-01T08:17:00;33.17;;;4.35;;
5762;SDS011;2906;53.282;9.508;2023-02-01T08:18:02;36.95;;;4.88;;
5762;SDS011;2906;53.282;9.508;2023-02-01T08:19:04;27.85;;;9.65;;
5762;SDS011;2906;53.282;9.508;2023-02-01T08:20:07;37.40;;;4.72;;
5762;SDS011;2906;53.282;9.508;2023-02-01T08:21:09;30.98;;;5.15;;
5762;SDS011;2906;53.282;9.508;2023-02-01T08:22:12;25.02;;;5.53;;
5762;SDS011;2906;53.282;9.508;2023-02-01T08:23:14;30.95;;;4.90;;
5762;SDS011;2906;53.282;9.508;2023-02-01T08:24:18;28.00;;;3.63;;
5762;SDS011;2906;53.282;9.508;2023-02-01T08:25:27;32.38;;;5.57;;
5762;SDS011;2906;53.282;9.508;2023-02-01T08:26:30;27.52;;;4.00;;
5762;SDS011;2906;53.282;9.508;2023-02-01T08:27:34;27.83;;;3.70;;
5762;SDS011;2906;53.282;9.508;2023-02-01T08:28:40;28.85;;;3.55;;
5762;SDS011;2906;53.282;9.508;2023-02-01T08:29:42;21.63;;;3.08;;
5762;SDS011;2906;53.282;9.508;2023-02-01T08:30:45;21.90;;;6.00;;
5762;SDS011;2906;53.282;9.508;2023-02-01T08:31:46;29.20;;;3.40;;
5762;SDS011;2906;53.282;9.508;2023-02-01T08:32:50;27.25;;;4.90;;
5762;SDS011;2906;53.282;9.508;2023-02-01T08:33:52;22.05;;;3.20;;
5762;SDS011;2906;53.282;9.508;2023-02-01T08:34:55;26.85;;;3.17;;
5762;SDS011;2906;53.282;9.508;2023-02-01T08:35:57;39.28;;;3.20;;
5762;SDS011;2906;53.282;9.508;2023-02-01T08:37:01;33.30;;;3.70;;
5762;SDS011;2906;53.282;9.508;2023-02-01T08:38:04;27.85;;;4.00;;
5762;SDS011;2906;53.282;9.508;2023-02-01T08:39:06;28.33;;;3.10;;
5762;SDS011;2906;53.282;9.508;2023-02-01T08:40:11;28.80;;;4.07;;